sensor_id;sensor_type;location;lat;lon;timestamp;P1;durP1;ratioP1;P2;durP2;ratioP2
78581;SDS011;67878;46.242;5.974;2024-03-23T00:55:52;1.50;;;1.40;;
78581;SDS011;67878;46.242;5.974;2024-03-23T00:58:18;2.50;;;1.80;;
78581;SDS011;67878;46.242;5.974;2024-03-23T01:00:43;2.63;;;1.50;;
78581;SDS011;67878;46.242;5.974;2024-03-23T01:03:08;2.15;;;1.38;;
78581;SDS011;67878;46.242;5.974;2024-03-23T01:05:34;1.83;;;1.60;;
78581;SDS011;67878;46.242;5.974;2024-03-23T01:07:59;2.03;;;1.52;;
78581;SDS011;67878;46.242;5.974;2024-03-23T01:10:25;1.50;;;1.40;;
78581;SDS011;67878;46.242;5.974;2024-03-23T01:12:50;1.77;;;1.67;;
78581;SDS011;67878;46.242;5.974;2024-03-23T01:15:16;1.35;;;1.25;;
78581;SDS011;67878;46.242;5.974;2024-03-23T01:17:41;2.78;;;1.67;;
78581;SDS011;67878;46.242;5.974;2024-03-23T01:20:07;1.73;;;1.48;;
78581;SDS011;67878;46.242;5.974;2024-03-23T01:22:32;1.63;;;1.52;;
78581;SDS011;67878;46.242;5.974;2024-03-23T01:24:58;2.00;;;1.80;;
78581;SDS011;67878;46.242;5.974;2024-03-23T01:27:24;2.50;;;1.60;;
78581;SDS011;67878;46.242;5.974;2024-03-23T01:29:49;1.73;;;1.60;;
78581;SDS011;67878;46.242;5.974;2024-03-23T01:32:17;2.10;;;1.40;;
78581;SDS011;67878;46.242;5.974;2024-03-23T01:34:43;2.10;;;1.48;;
78581;SDS011;67878;46.242;5.974;2024-03-23T01:37:09;1.88;;;1.30;;
78581;SDS011;67878;46.242;5.974;2024-03-23T01:39:34;1.45;;;1.35;;
78581;SDS011;67878;46.242;5.974;2024-03-23T01:42:00;2.85;;;1.48;;
78581;SDS011;67878;46.242;5.974;2024-03-23T01:44:25;1.77;;;1.52;;
78581;SDS011;67878;46.242;5.974;2024-03-23T01:46:51;1.60;;;1.50;;
78581;SDS011;67878;46.242;5.974;2024-03-23T01:49:16;1.73;;;1.45;;
78581;SDS011;67878;46.242;5.974;2024-03-23T01:51:42;2.33;;;1.40;;
78581;SDS011;67878;46.242;5.974;2024-03-23T01:54:09;2.97;;;1.27;;
78581;SDS011;67878;46.242;5.974;2024-03-23T01:56:35;3.25;;;1.38;;
78581;SDS011;67878;46.242;5.974;2024-03-23T01:59:04;6.65;;;1.67;;
78581;SDS011;67878;46.242;5.974;2024-03-23T02:01:30;2.10;;;1.55;;
78581;SDS011;67878;46.242;5.974;2024-03-23T02:03:56;2.65;;;1.77;;
78581;SDS011;67878;46.242;5.974;2024-03-23T02:06:22;1.63;;;1.30;;
78581;SDS011;67878;46.242;5.974;2024-03-23T02:08:49;4.47;;;1.70;;
78581;SDS011;67878;46.242;5.974;2024-03-23T02:11:14;3.20;;;1.52;;
78581;SDS011;67878;46.242;5.974;2024-03-23T02:13:40;3.25;;;1.50;;
78581;SDS011;67878;46.242;5.974;2024-03-23T02:16:06;6.75;;;1.50;;
78581;SDS011;67878;46.242;5.974;2024-03-23T02:18:32;4.70;;;1.63;;
78581;SDS011;67878;46.242;5.974;2024-03-23T02:20:58;2.65;;;1.42;;
78581;SDS011;67878;46.242;5.974;2024-03-23T02:23:24;5.15;;;1.67;;
78581;SDS011;67878;46.242;5.974;2024-03-23T02:25:49;4.53;;;1.60;;
78581;SDS011;67878;46.242;5.974;2024-03-23T02:28:15;3.33;;;1.88;;
78581;SDS011;67878;46.242;5.974;2024-03-23T02:30:42;3.35;;;1.60;;
78581;SDS011;67878;46.242;5.974;2024-03-23T02:33:07;4.05;;;1.45;;
78581;SDS011;67878;46.242;5.974;2024-03-23T02:35:33;2.85;;;1.50;;
78581;SDS011;67878;46.242;5.974;2024-03-23T02:37:59;3.85;;;1.60;;
78581;SDS011;67878;46.242;5.974;2024-03-23T02:40:24;5.68;;;1.40;;
78581;SDS011;67878;46.242;5.974;2024-03-23T02:42:50;3.60;;;1.50;;
78581;SDS011;67878;46.242;5.974;2024-03-23T02:45:16;2.97;;;1.40;;
78581;SDS011;67878;46.242;5.974;2024-03-23T02:47:42;1.67;;;1.25;;
78581;SDS011;67878;46.242;5.974;2024-03-23T02:50:07;3.50;;;1.42;;
78581;SDS011;67878;46.242;5.974;2024-03-23T02:52:34;4.35;;;1.40;;
78581;SDS011;67878;46.242;5.974;2024-03-23T02:55:00;2.20;;;1.60;;
78581;SDS011;67878;46.242;5.974;2024-03-23T02:57:27;2.70;;;1.38;;
78581;SDS011;67878;46.242;5.974;2024-03-23T02:59:53;5.05;;;1.65;;
78581;SDS011;67878;46.242;5.974;2024-03-23T03:02:19;2.45;;;1.40;;
78581;SDS011;67878;46.242;5.974;2024-03-23T03:04:45;2.95;;;1.42;;
78581;SDS011;67878;46.242;5.974;2024-03-23T03:07:10;1.83;;;1.30;;
78581;SDS011;67878;46.242;5.974;2024-03-23T03:09:36;1.65;;;1.55;;
78581;SDS011;67878;46.242;5.974;2024-03-23T03:12:04;4.07;;;1.30;;
78581;SDS011;67878;46.242;5.974;2024-03-23T03:14:32;1.92;;;1.55;;
78581;SDS011;67878;46.242;5.974;2024-03-23T03:16:58;1.65;;;1.55;;
78581;SDS011;67878;46.242;5.974;2024-03-23T03:19:24;2.17;;;1.58;;
78581;SDS011;67878;46.242;5.974;2024-03-23T03:21:49;1.58;;;1.48;;
78581;SDS011;67878;46.242;5.974;2024-03-23T03:24:15;2.45;;;1.58;;
78581;SDS011;67878;46.242;5.974;2024-03-23T03:26:40;2.00;;;1.90;;
78581;SDS011;67878;46.242;5.974;2024-03-23T03:29:06;2.60;;;1.48;;
78581;SDS011;67878;46.242;5.974;2024-03-23T03:31:31;1.55;;;1.30;;
78581;SDS011;67878;46.242;5.974;2024-03-23T03:33:57;1.98;;;1.50;;
78581;SDS011;67878;46.242;5.974;2024-03-23T03:36:22;2.17;;;1.60;;
78581;SDS011;67878;46.242;5.974;2024-03-23T03:38:48;3.40;;;1.60;;
78581;SDS011;67878;46.242;5.974;2024-03-23T03:41:13;1.88;;;1.30;;
78581;SDS011;67878;46.242;5.974;2024-03-23T03:43:39;2.22;;;1.50;;
78581;SDS011;67878;46.242;5.974;2024-03-23T03:46:04;1.65;;;1.42;;
78581;SDS011;67878;46.242;5.974;2024-03-23T03:48:30;1.50;;;1.40;;
78581;SDS011;67878;46.242;5.974;2024-03-23T03:50:55;2.10;;;1.48;;
78581;SDS011;67878;46.242;5.974;2024-03-23T03:53:21;2.00;;;1.40;;
78581;SDS011;67878;46.242;5.974;2024-03-23T03:55:46;1.63;;;1.35;;
78581;SDS011;67878;46.242;5.974;2024-03-23T03:58:12;1.58;;;1.45;;
78581;SDS011;67878;46.242;5.974;2024-03-23T04:00:37;3.17;;;1.85;;
78581;SDS011;67878;46.242;5.974;2024-03-23T04:03:03;1.83;;;1.48;;
78581;SDS011;67878;46.242;5.974;2024-03-23T04:05:29;1.63;;;1.40;;
78581;SDS011;67878;46.242;5.974;2024-03-23T04:07:54;1.50;;;1.40;;
78581;SDS011;67878;46.242;5.974;2024-03-23T04:10:20;2.20;;;1.40;;
78581;SDS011;67878;46.242;5.974;2024-03-23T04:12:46;2.05;;;1.80;;
78581;SDS011;67878;46.242;5.974;2024-03-23T04:15:12;1.98;;;1.40;;
78581;SDS011;67878;46.242;5.974;2024-03-23T04:17:38;1.50;;;1.30;;
78581;SDS011;67878;46.242;5.974;2024-03-23T04:20:04;2.15;;;1.67;;
78581;SDS011;67878;46.242;5.974;2024-03-23T04:22:34;2.47;;;1.38;;
78581;SDS011;67878;46.242;5.974;2024-03-23T04:24:59;2.13;;;1.65;;
78581;SDS011;67878;46.242;5.974;2024-03-23T04:27:28;2.35;;;1.50;;
78581;SDS011;67878;46.242;5.974;2024-03-23T04:29:54;1.92;;;1.52;;
78581;SDS011;67878;46.242;5.974;2024-03-23T04:32:19;1.90;;;1.40;;
78581;SDS011;67878;46.242;5.974;2024-03-23T04:34:45;2.22;;;1.50;;
78581;SDS011;67878;46.242;5.974;2024-03-23T04:37:10;1.70;;;1.60;;
78581;SDS011;67878;46.242;5.974;2024-03-23T04:39:36;2.20;;;1.50;;
78581;SDS011;67878;46.242;5.974;2024-03-23T04:42:02;1.88;;;1.27;;
78581;SDS011;67878;46.242;5.974;2024-03-23T04:44:28;1.60;;;1.40;;
78581;SDS011;67878;46.242;5.974;2024-03-23T04:46:54;2.33;;;1.15;;
78581;SDS011;67878;46.242;5.974;2024-03-23T04:49:20;1.90;;;1.52;;
78581;SDS011;67878;46.242;5.974;2024-03-23T04:51:45;1.52;;;1.35;;
78581;SDS011;67878;46.242;5.974;2024-03-23T04:54:14;2.15;;;1.48;;
78581;SDS011;67878;46.242;5.974;2024-03-23T04:56:40;1.60;;;1.50;;
78581;SDS011;67878;46.242;5.974;2024-03-23T04:59:06;1.50;;;1.38;;
78581;SDS011;67878;46.242;5.974;2024-03-23T05:01:31;1.52;;;1.40;;
78581;SDS011;67878;46.242;5.974;2024-03-23T05:04:01;2.00;;;1.77;;
78581;SDS011;67878;46.242;5.974;2024-03-23T05:06:28;2.00;;;1.65;;
78581;SDS011;67878;46.242;5.974;2024-03-23T05:08:56;1.55;;;1.45;;
78581;SDS011;67878;46.242;5.974;2024-03-23T08:02:05;3.47;;;1.55;;
78581;SDS011;67878;46.242;5.974;2024-03-23T08:04:30;2.67;;;1.33;;
78581;SDS011;67878;46.242;5.974;2024-03-23T08:06:56;9.30;;;1.60;;
78581;SDS011;67878;46.242;5.974;2024-03-23T08:09:27;3.28;;;1.55;;
78581;SDS011;67878;46.242;5.974;2024-03-23T08:11:59;3.97;;;1.40;;
78581;SDS011;67878;46.242;5.974;2024-03-23T08:14:28;2.92;;;1.60;;
78581;SDS011;67878;46.242;5.974;2024-03-23T08:16:56;2.35;;;1.35;;
78581;SDS011;67878;46.242;5.974;2024-03-23T08:19:25;1.73;;;1.40;;
78581;SDS011;67878;46.242;5.974;2024-03-23T08:21:53;2.10;;;1.20;;
78581;SDS011;67878;46.242;5.974;2024-03-23T08:24:22;3.03;;;1.30;;
78581;SDS011;67878;46.242;5.974;2024-03-23T08:26:49;1.70;;;1.20;;
78581;SDS011;67878;46.242;5.974;2024-03-23T08:29:21;2.92;;;1.48;;
78581;SDS011;67878;46.242;5.974;2024-03-23T08:31:48;2.05;;;1.20;;
78581;SDS011;67878;46.242;5.974;2024-03-23T08:34:17;1.48;;;1.10;;
78581;SDS011;67878;46.242;5.974;2024-03-23T08:36:42;2.47;;;1.13;;
78581;SDS011;67878;46.242;5.974;2024-03-23T08:39:08;2.20;;;1.00;;
78581;SDS011;67878;46.242;5.974;2024-03-23T08:41:34;1.23;;;1.10;;
78581;SDS011;67878;46.242;5.974;2024-03-23T08:43:59;1.50;;;1.10;;
78581;SDS011;67878;46.242;5.974;2024-03-23T08:46:25;2.83;;;1.50;;
78581;SDS011;67878;46.242;5.974;2024-03-23T08:48:51;2.15;;;1.15;;
78581;SDS011;67878;46.242;5.974;2024-03-23T08:51:17;1.85;;;1.10;;
78581;SDS011;67878;46.242;5.974;2024-03-23T08:53:43;1.70;;;1.17;;
78581;SDS011;67878;46.242;5.974;2024-03-23T08:56:09;3.38;;;1.70;;
78581;SDS011;67878;46.242;5.974;2024-03-23T08:58:36;2.35;;;1.00;;
78581;SDS011;67878;46.242;5.974;2024-03-23T09:01:07;1.50;;;0.93;;
78581;SDS011;67878;46.242;5.974;2024-03-23T09:03:33;1.33;;;0.80;;
78581;SDS011;67878;46.242;5.974;2024-03-23T09:06:00;1.25;;;0.95;;
78581;SDS011;67878;46.242;5.974;2024-03-23T09:08:26;1.40;;;1.00;;
78581;SDS011;67878;46.242;5.974;2024-03-23T09:10:52;2.53;;;0.98;;
78581;SDS011;67878;46.242;5.974;2024-03-23T09:13:18;1.98;;;1.02;;
78581;SDS011;67878;46.242;5.974;2024-03-23T09:15:47;1.80;;;1.00;;
78581;SDS011;67878;46.242;5.974;2024-03-23T09:18:13;1.42;;;1.10;;
78581;SDS011;67878;46.242;5.974;2024-03-23T09:20:39;1.95;;;1.00;;
78581;SDS011;67878;46.242;5.974;2024-03-23T09:23:04;1.17;;;0.93;;
78581;SDS011;67878;46.242;5.974;2024-03-23T09:25:30;1.73;;;0.95;;
78581;SDS011;67878;46.242;5.974;2024-03-23T09:27:55;2.67;;;0.98;;
78581;SDS011;67878;46.242;5.974;2024-03-23T09:30:21;1.70;;;1.20;;
78581;SDS011;67878;46.242;5.974;2024-03-23T09:32:46;2.40;;;1.13;;
78581;SDS011;67878;46.242;5.974;2024-03-23T09:35:12;1.52;;;0.70;;
78581;SDS011;67878;46.242;5.974;2024-03-23T09:37:40;1.33;;;1.00;;
78581;SDS011;67878;46.242;5.974;2024-03-23T09:40:09;1.10;;;1.00;;
78581;SDS011;67878;46.242;5.974;2024-03-23T09:42:36;1.25;;;0.93;;
78581;SDS011;67878;46.242;5.974;2024-03-23T09:45:02;1.60;;;1.00;;
78581;SDS011;67878;46.242;5.974;2024-03-23T09:47:30;1.67;;;0.90;;
78581;SDS011;67878;46.242;5.974;2024-03-23T09:49:57;1.08;;;0.90;;
78581;SDS011;67878;46.242;5.974;2024-03-23T09:52:23;1.30;;;0.70;;
78581;SDS011;67878;46.242;5.974;2024-03-23T09:54:48;2.03;;;0.90;;
78581;SDS011;67878;46.242;5.974;2024-03-23T09:57:14;1.85;;;0.90;;
78581;SDS011;67878;46.242;5.974;2024-03-23T09:59:39;1.92;;;0.95;;
78581;SDS011;67878;46.242;5.974;2024-03-23T10:02:05;2.30;;;1.00;;
78581;SDS011;67878;46.242;5.974;2024-03-23T10:04:38;1.25;;;0.93;;
78581;SDS011;67878;46.242;5.974;2024-03-23T10:07:14;2.28;;;1.00;;
78581;SDS011;67878;46.242;5.974;2024-03-23T10:09:43;1.77;;;0.90;;
78581;SDS011;67878;46.242;5.974;2024-03-23T10:12:11;1.60;;;0.88;;
78581;SDS011;67878;46.242;5.974;2024-03-23T10:14:41;3.08;;;1.02;;
78581;SDS011;67878;46.242;5.974;2024-03-23T10:17:18;2.60;;;0.85;;
78581;SDS011;67878;46.242;5.974;2024-03-23T10:19:45;4.68;;;1.00;;
78581;SDS011;67878;46.242;5.974;2024-03-23T10:22:13;1.85;;;1.02;;
78581;SDS011;67878;46.242;5.974;2024-03-23T10:24:40;1.30;;;1.02;;
78581;SDS011;67878;46.242;5.974;2024-03-23T10:27:08;1.27;;;0.90;;
78581;SDS011;67878;46.242;5.974;2024-03-23T10:29:34;2.20;;;0.80;;
78581;SDS011;67878;46.242;5.974;2024-03-23T10:32:09;1.88;;;1.02;;
78581;SDS011;67878;46.242;5.974;2024-03-23T10:34:39;2.90;;;1.02;;
78581;SDS011;67878;46.242;5.974;2024-03-23T10:37:05;2.00;;;1.08;;
78581;SDS011;67878;46.242;5.974;2024-03-23T10:39:35;1.60;;;1.10;;
78581;SDS011;67878;46.242;5.974;2024-03-23T10:45:23;1.40;;;1.00;;
78581;SDS011;67878;46.242;5.974;2024-03-23T10:47:49;1.80;;;0.90;;
78581;SDS011;67878;46.242;5.974;2024-03-23T10:50:15;1.90;;;1.10;;
78581;SDS011;67878;46.242;5.974;2024-03-23T10:52:41;2.25;;;0.73;;
78581;SDS011;67878;46.242;5.974;2024-03-23T10:55:11;2.17;;;1.08;;
78581;SDS011;67878;46.242;5.974;2024-03-23T10:58:12;2.28;;;0.98;;
78581;SDS011;67878;46.242;5.974;2024-03-23T11:00:31;2.63;;;0.90;;
78581;SDS011;67878;46.242;5.974;2024-03-23T11:02:57;1.67;;;1.02;;
78581;SDS011;67878;46.242;5.974;2024-03-23T11:07:49;3.45;;;0.90;;
78581;SDS011;67878;46.242;5.974;2024-03-23T11:10:29;2.42;;;1.15;;
78581;SDS011;67878;46.242;5.974;2024-03-23T11:12:56;1.42;;;0.75;;
78581;SDS011;67878;46.242;5.974;2024-03-23T11:15:22;1.70;;;0.90;;
78581;SDS011;67878;46.242;5.974;2024-03-23T11:20:46;2.85;;;0.90;;
78581;SDS011;67878;46.242;5.974;2024-03-23T11:23:26;3.78;;;1.38;;
78581;SDS011;67878;46.242;5.974;2024-03-23T11:25:52;1.73;;;1.00;;
78581;SDS011;67878;46.242;5.974;2024-03-23T11:28:18;1.83;;;0.93;;
78581;SDS011;67878;46.242;5.974;2024-03-23T11:30:46;1.60;;;0.80;;
78581;SDS011;67878;46.242;5.974;2024-03-23T11:33:14;2.17;;;0.80;;
78581;SDS011;67878;46.242;5.974;2024-03-23T11:40:45;1.48;;;0.70;;
78581;SDS011;67878;46.242;5.974;2024-03-23T11:43:14;1.80;;;0.80;;
78581;SDS011;67878;46.242;5.974;2024-03-23T11:45:52;1.92;;;0.98;;
78581;SDS011;67878;46.242;5.974;2024-03-23T11:48:19;3.50;;;1.20;;
78581;SDS011;67878;46.242;5.974;2024-03-23T11:50:48;3.05;;;1.10;;
78581;SDS011;67878;46.242;5.974;2024-03-23T11:55:46;3.08;;;0.88;;
78581;SDS011;67878;46.242;5.974;2024-03-23T11:58:19;2.55;;;1.05;;
78581;SDS011;67878;46.242;5.974;2024-03-23T12:00:59;2.97;;;1.15;;
78581;SDS011;67878;46.242;5.974;2024-03-23T12:03:28;1.88;;;1.02;;
78581;SDS011;67878;46.242;5.974;2024-03-23T12:06:03;2.25;;;1.30;;
78581;SDS011;67878;46.242;5.974;2024-03-23T12:11:09;3.03;;;1.23;;
78581;SDS011;67878;46.242;5.974;2024-03-23T12:13:36;4.47;;;1.40;;
78581;SDS011;67878;46.242;5.974;2024-03-23T12:16:18;3.08;;;1.30;;
78581;SDS011;67878;46.242;5.974;2024-03-23T12:18:46;2.72;;;1.40;;
78581;SDS011;67878;46.242;5.974;2024-03-23T12:21:12;2.30;;;1.35;;
78581;SDS011;67878;46.242;5.974;2024-03-23T12:23:39;2.58;;;1.52;;
78581;SDS011;67878;46.242;5.974;2024-03-23T12:26:05;2.35;;;1.20;;
78581;SDS011;67878;46.242;5.974;2024-03-23T12:28:31;3.22;;;1.15;;
78581;SDS011;67878;46.242;5.974;2024-03-23T12:30:57;3.05;;;1.35;;
78581;SDS011;67878;46.242;5.974;2024-03-23T12:33:23;1.80;;;1.10;;
78581;SDS011;67878;46.242;5.974;2024-03-23T12:35:50;1.60;;;1.17;;
78581;SDS011;67878;46.242;5.974;2024-03-23T12:38:15;3.10;;;1.17;;
78581;SDS011;67878;46.242;5.974;2024-03-23T12:40:41;2.45;;;1.15;;
78581;SDS011;67878;46.242;5.974;2024-03-23T12:43:07;2.50;;;1.23;;
78581;SDS011;67878;46.242;5.974;2024-03-23T12:45:33;1.77;;;1.13;;
78581;SDS011;67878;46.242;5.974;2024-03-23T12:48:00;2.80;;;1.00;;
78581;SDS011;67878;46.242;5.974;2024-03-23T12:50:25;2.58;;;0.90;;
78581;SDS011;67878;46.242;5.974;2024-03-23T12:52:51;1.75;;;1.00;;
78581;SDS011;67878;46.242;5.974;2024-03-23T12:55:16;2.33;;;1.27;;
78581;SDS011;67878;46.242;5.974;2024-03-23T12:57:42;2.22;;;1.08;;
78581;SDS011;67878;46.242;5.974;2024-03-23T13:00:07;2.55;;;1.40;;
78581;SDS011;67878;46.242;5.974;2024-03-23T13:02:36;1.60;;;1.10;;
78581;SDS011;67878;46.242;5.974;2024-03-23T13:05:04;1.45;;;1.13;;
78581;SDS011;67878;46.242;5.974;2024-03-23T13:07:30;2.03;;;1.20;;
78581;SDS011;67878;46.242;5.974;2024-03-23T13:09:56;2.20;;;1.20;;
78581;SDS011;67878;46.242;5.974;2024-03-23T13:12:22;1.73;;;1.00;;
78581;SDS011;67878;46.242;5.974;2024-03-23T13:14:48;3.63;;;1.17;;
78581;SDS011;67878;46.242;5.974;2024-03-23T13:17:14;2.53;;;1.13;;
78581;SDS011;67878;46.242;5.974;2024-03-23T13:19:40;3.20;;;1.05;;
78581;SDS011;67878;46.242;5.974;2024-03-23T13:22:05;1.98;;;1.10;;
78581;SDS011;67878;46.242;5.974;2024-03-23T13:24:31;1.77;;;0.90;;
78581;SDS011;67878;46.242;5.974;2024-03-23T13:26:57;1.50;;;1.13;;
78581;SDS011;67878;46.242;5.974;2024-03-23T13:29:23;3.13;;;0.98;;
78581;SDS011;67878;46.242;5.974;2024-03-23T13:31:49;1.65;;;0.93;;
78581;SDS011;67878;46.242;5.974;2024-03-23T13:34:16;1.35;;;0.80;;
78581;SDS011;67878;46.242;5.974;2024-03-23T13:36:43;2.78;;;1.10;;
78581;SDS011;67878;46.242;5.974;2024-03-23T13:39:11;2.42;;;1.20;;
78581;SDS011;67878;46.242;5.974;2024-03-23T13:41:38;4.78;;;1.05;;
78581;SDS011;67878;46.242;5.974;2024-03-23T13:44:11;2.55;;;1.30;;
78581;SDS011;67878;46.242;5.974;2024-03-23T13:46:38;5.93;;;1.20;;
78581;SDS011;67878;46.242;5.974;2024-03-23T13:49:05;5.82;;;1.35;;
78581;SDS011;67878;46.242;5.974;2024-03-23T13:51:31;5.22;;;1.10;;
78581;SDS011;67878;46.242;5.974;2024-03-23T13:53:58;3.97;;;1.25;;
78581;SDS011;67878;46.242;5.974;2024-03-23T13:56:29;4.03;;;0.95;;
78581;SDS011;67878;46.242;5.974;2024-03-23T13:58:55;5.35;;;1.13;;
78581;SDS011;67878;46.242;5.974;2024-03-23T14:01:21;3.78;;;1.30;;
78581;SDS011;67878;46.242;5.974;2024-03-23T14:03:47;3.22;;;0.90;;
78581;SDS011;67878;46.242;5.974;2024-03-23T14:06:13;3.88;;;1.20;;
78581;SDS011;67878;46.242;5.974;2024-03-23T14:08:38;2.33;;;1.13;;
78581;SDS011;67878;46.242;5.974;2024-03-23T14:11:06;3.08;;;1.00;;
78581;SDS011;67878;46.242;5.974;2024-03-23T14:13:35;3.53;;;1.13;;
78581;SDS011;67878;46.242;5.974;2024-03-23T14:16:04;4.10;;;1.05;;
78581;SDS011;67878;46.242;5.974;2024-03-23T14:18:30;3.83;;;1.73;;
78581;SDS011;67878;46.242;5.974;2024-03-23T14:20:58;2.35;;;1.30;;
78581;SDS011;67878;46.242;5.974;2024-03-23T14:23:25;9.73;;;1.60;;
78581;SDS011;67878;46.242;5.974;2024-03-23T14:25:54;3.13;;;1.13;;
78581;SDS011;67878;46.242;5.974;2024-03-23T14:28:21;5.18;;;1.10;;
78581;SDS011;67878;46.242;5.974;2024-03-23T14:30:48;6.40;;;1.23;;
78581;SDS011;67878;46.242;5.974;2024-03-23T14:33:17;4.38;;;1.40;;
78581;SDS011;67878;46.242;5.974;2024-03-23T14:35:43;4.55;;;1.60;;
78581;SDS011;67878;46.242;5.974;2024-03-23T14:38:17;2.92;;;1.10;;
78581;SDS011;67878;46.242;5.974;2024-03-23T14:40:42;6.10;;;1.20;;
78581;SDS011;67878;46.242;5.974;2024-03-23T14:43:08;3.33;;;1.02;;
78581;SDS011;67878;46.242;5.974;2024-03-23T14:45:33;2.60;;;0.80;;
78581;SDS011;67878;46.242;5.974;2024-03-23T14:47:59;3.33;;;1.20;;
78581;SDS011;67878;46.242;5.974;2024-03-23T14:56:43;5.57;;;0.95;;
78581;SDS011;67878;46.242;5.974;2024-03-23T14:59:09;2.22;;;1.20;;
78581;SDS011;67878;46.242;5.974;2024-03-23T15:01:34;3.10;;;1.15;;
78581;SDS011;67878;46.242;5.974;2024-03-23T15:04:00;4.30;;;1.10;;
78581;SDS011;67878;46.242;5.974;2024-03-23T15:06:26;3.33;;;0.90;;
78581;SDS011;67878;46.242;5.974;2024-03-23T15:08:51;4.25;;;0.90;;
78581;SDS011;67878;46.242;5.974;2024-03-23T15:11:17;3.35;;;1.10;;
78581;SDS011;67878;46.242;5.974;2024-03-23T15:13:44;2.72;;;1.05;;
78581;SDS011;67878;46.242;5.974;2024-03-23T15:16:10;1.73;;;0.90;;
78581;SDS011;67878;46.242;5.974;2024-03-23T15:18:36;2.35;;;1.13;;
78581;SDS011;67878;46.242;5.974;2024-03-23T15:21:02;1.38;;;0.70;;
78581;SDS011;67878;46.242;5.974;2024-03-23T15:23:32;1.38;;;0.65;;
78581;SDS011;67878;46.242;5.974;2024-03-23T15:25:59;2.05;;;0.98;;
78581;SDS011;67878;46.242;5.974;2024-03-23T15:28:25;1.67;;;0.80;;
78581;SDS011;67878;46.242;5.974;2024-03-23T15:30:53;1.90;;;1.00;;
78581;SDS011;67878;46.242;5.974;2024-03-23T15:33:18;1.30;;;0.85;;
78581;SDS011;67878;46.242;5.974;2024-03-23T15:35:44;1.85;;;0.82;;
78581;SDS011;67878;46.242;5.974;2024-03-23T15:38:09;2.25;;;0.50;;
78581;SDS011;67878;46.242;5.974;2024-03-23T15:40:35;4.22;;;0.90;;
78581;SDS011;67878;46.242;5.974;2024-03-23T15:43:00;2.55;;;0.90;;
78581;SDS011;67878;46.242;5.974;2024-03-23T15:45:26;1.80;;;0.57;;
78581;SDS011;67878;46.242;5.974;2024-03-23T15:47:52;2.50;;;0.70;;
78581;SDS011;67878;46.242;5.974;2024-03-23T15:50:17;2.50;;;0.73;;
78581;SDS011;67878;46.242;5.974;2024-03-23T15:52:43;2.28;;;0.80;;
78581;SDS011;67878;46.242;5.974;2024-03-23T15:55:08;2.45;;;0.80;;
78581;SDS011;67878;46.242;5.974;2024-03-23T15:57:35;2.00;;;0.73;;
78581;SDS011;67878;46.242;5.974;2024-03-23T16:10:06;2.60;;;0.70;;
78581;SDS011;67878;46.242;5.974;2024-03-23T16:12:34;3.92;;;0.80;;
78581;SDS011;67878;46.242;5.974;2024-03-23T16:14:59;2.80;;;0.70;;
78581;SDS011;67878;46.242;5.974;2024-03-23T16:17:25;4.60;;;0.80;;
78581;SDS011;67878;46.242;5.974;2024-03-23T16:19:50;3.13;;;0.68;;
78581;SDS011;67878;46.242;5.974;2024-03-23T16:22:16;2.15;;;0.80;;
78581;SDS011;67878;46.242;5.974;2024-03-23T16:24:41;0.80;;;0.60;;
78581;SDS011;67878;46.242;5.974;2024-03-23T16:27:09;1.75;;;0.70;;
78581;SDS011;67878;46.242;5.974;2024-03-23T16:29:39;2.50;;;0.82;;
78581;SDS011;67878;46.242;5.974;2024-03-23T16:32:05;1.63;;;0.70;;
78581;SDS011;67878;46.242;5.974;2024-03-23T16:34:31;2.05;;;0.65;;
78581;SDS011;67878;46.242;5.974;2024-03-23T16:36:56;3.80;;;1.00;;
78581;SDS011;67878;46.242;5.974;2024-03-23T16:39:22;4.10;;;0.80;;
78581;SDS011;67878;46.242;5.974;2024-03-23T16:41:47;3.95;;;0.90;;
78581;SDS011;67878;46.242;5.974;2024-03-23T16:44:13;1.58;;;0.68;;
78581;SDS011;67878;46.242;5.974;2024-03-23T16:46:38;1.83;;;0.52;;
78581;SDS011;67878;46.242;5.974;2024-03-23T16:49:05;2.55;;;0.55;;
78581;SDS011;67878;46.242;5.974;2024-03-23T16:51:31;1.35;;;0.70;;
78581;SDS011;67878;46.242;5.974;2024-03-23T16:53:56;1.17;;;0.52;;
78581;SDS011;67878;46.242;5.974;2024-03-23T16:56:24;1.90;;;0.60;;
78581;SDS011;67878;46.242;5.974;2024-03-23T16:58:50;2.55;;;0.77;;
78581;SDS011;67878;46.242;5.974;2024-03-23T17:01:16;2.22;;;0.70;;
78581;SDS011;67878;46.242;5.974;2024-03-23T17:03:51;1.42;;;0.80;;
78581;SDS011;67878;46.242;5.974;2024-03-23T17:06:17;1.60;;;0.68;;
78581;SDS011;67878;46.242;5.974;2024-03-23T17:08:49;1.60;;;0.70;;
78581;SDS011;67878;46.242;5.974;2024-03-23T17:11:16;2.65;;;0.50;;
78581;SDS011;67878;46.242;5.974;2024-03-23T17:13:44;1.67;;;0.50;;
78581;SDS011;67878;46.242;5.974;2024-03-23T17:16:10;2.47;;;0.70;;
78581;SDS011;67878;46.242;5.974;2024-03-23T17:18:37;3.60;;;0.70;;
78581;SDS011;67878;46.242;5.974;2024-03-23T17:21:02;1.30;;;0.55;;
78581;SDS011;67878;46.242;5.974;2024-03-23T17:23:28;2.45;;;0.68;;
78581;SDS011;67878;46.242;5.974;2024-03-23T17:25:55;2.50;;;0.90;;
78581;SDS011;67878;46.242;5.974;2024-03-23T17:28:21;1.02;;;0.57;;
78581;SDS011;67878;46.242;5.974;2024-03-23T17:30:47;2.47;;;0.75;;
78581;SDS011;67878;46.242;5.974;2024-03-23T17:33:14;2.60;;;0.80;;
78581;SDS011;67878;46.242;5.974;2024-03-23T17:35:40;1.75;;;0.60;;
78581;SDS011;67878;46.242;5.974;2024-03-23T17:38:05;1.40;;;0.80;;
78581;SDS011;67878;46.242;5.974;2024-03-23T17:40:31;2.78;;;0.93;;
78581;SDS011;67878;46.242;5.974;2024-03-23T17:42:57;1.23;;;0.60;;
78581;SDS011;67878;46.242;5.974;2024-03-23T17:45:25;1.35;;;1.10;;
78581;SDS011;67878;46.242;5.974;2024-03-23T17:47:51;1.50;;;0.50;;
78581;SDS011;67878;46.242;5.974;2024-03-23T17:50:16;2.22;;;0.70;;
78581;SDS011;67878;46.242;5.974;2024-03-23T17:52:43;3.50;;;0.80;;
78581;SDS011;67878;46.242;5.974;2024-03-23T17:55:09;1.00;;;0.70;;
78581;SDS011;67878;46.242;5.974;2024-03-23T17:57:35;1.23;;;0.50;;
78581;SDS011;67878;46.242;5.974;2024-03-23T18:00:00;1.67;;;0.60;;
78581;SDS011;67878;46.242;5.974;2024-03-23T18:02:26;0.80;;;0.60;;
78581;SDS011;67878;46.242;5.974;2024-03-23T18:04:53;1.23;;;0.70;;
78581;SDS011;67878;46.242;5.974;2024-03-23T18:07:25;2.30;;;0.57;;
78581;SDS011;67878;46.242;5.974;2024-03-23T18:09:51;0.90;;;0.40;;
78581;SDS011;67878;46.242;5.974;2024-03-23T18:12:16;1.55;;;0.65;;
78581;SDS011;67878;46.242;5.974;2024-03-23T18:14:43;1.45;;;0.60;;
78581;SDS011;67878;46.242;5.974;2024-03-23T18:17:09;1.15;;;0.60;;
78581;SDS011;67878;46.242;5.974;2024-03-23T18:19:35;1.35;;;0.60;;
78581;SDS011;67878;46.242;5.974;2024-03-23T18:22:01;2.53;;;0.90;;
78581;SDS011;67878;46.242;5.974;2024-03-23T18:24:26;1.35;;;0.65;;
78581;SDS011;67878;46.242;5.974;2024-03-23T18:26:52;2.25;;;0.50;;
78581;SDS011;67878;46.242;5.974;2024-03-23T18:29:20;0.95;;;0.65;;
78581;SDS011;67878;46.242;5.974;2024-03-23T18:31:47;1.77;;;0.70;;
78581;SDS011;67878;46.242;5.974;2024-03-23T18:34:14;2.22;;;0.68;;
78581;SDS011;67878;46.242;5.974;2024-03-23T18:36:39;1.40;;;0.80;;
78581;SDS011;67878;46.242;5.974;2024-03-23T18:39:05;2.05;;;0.77;;
78581;SDS011;67878;46.242;5.974;2024-03-23T18:41:32;2.47;;;0.98;;
78581;SDS011;67878;46.242;5.974;2024-03-23T18:43:58;1.30;;;0.65;;
78581;SDS011;67878;46.242;5.974;2024-03-23T18:46:26;0.77;;;0.60;;
78581;SDS011;67878;46.242;5.974;2024-03-23T18:49:04;2.55;;;0.70;;
78581;SDS011;67878;46.242;5.974;2024-03-23T18:51:31;1.75;;;0.80;;
78581;SDS011;67878;46.242;5.974;2024-03-23T18:54:04;4.63;;;0.80;;
78581;SDS011;67878;46.242;5.974;2024-03-23T18:56:32;2.33;;;0.90;;
78581;SDS011;67878;46.242;5.974;2024-03-23T18:58:59;2.53;;;0.63;;
78581;SDS011;67878;46.242;5.974;2024-03-23T19:01:28;2.53;;;0.90;;
78581;SDS011;67878;46.242;5.974;2024-03-23T19:03:59;2.42;;;0.70;;
78581;SDS011;67878;46.242;5.974;2024-03-23T19:06:27;3.60;;;0.68;;